createdAt,value
2022-10-11T00:00:37.161Z,101393.75
2022-10-11T00:03:08.469Z,101406.13
2022-10-11T00:05:40.188Z,101401.69
2022-10-11T00:08:12.290Z,101404.34
2022-10-11T00:10:43.757Z,101410.50
2022-10-11T00:13:15.010Z,101411.38
2022-10-11T00:15:46.261Z,101409.56
2022-10-11T00:18:17.617Z,101417.50
2022-10-11T00:20:49.033Z,101415.72
2022-10-11T00:23:20.390Z,101424.50
2022-10-11T00:26:03.705Z,101429.78
2022-10-11T00:28:36.402Z,101434.16
2022-10-11T00:31:13.518Z,101435.03
2022-10-11T00:33:45.178Z,101438.56
2022-10-11T00:36:17.055Z,101443.81
2022-10-11T00:38:48.557Z,101443.81
2022-10-11T00:41:19.859Z,101454.38
2022-10-11T00:44:23.901Z,101449.06
2022-10-11T00:47:12.387Z,101457.84
2022-10-11T00:49:55.466Z,101461.34
2022-10-11T00:52:31.809Z,101453.41
2022-10-11T00:55:06.694Z,101460.41
2022-10-11T00:57:41.890Z,101457.75
2022-10-11T01:00:15.576Z,101455.94
2022-10-11T01:02:47.152Z,101462.97
2022-10-11T01:05:29.155Z,101468.25
2022-10-11T01:08:02.488Z,101463.81
2022-10-11T01:10:35.326Z,101457.59
2022-10-11T01:13:35.341Z,101460.25
2022-10-11T01:16:33.921Z,101470.78
2022-10-11T01:19:05.226Z,101469.00
2022-10-11T01:21:51.313Z,101471.63
2022-10-11T01:24:52.781Z,101476.91
2022-10-11T01:27:49.195Z,101478.63
2022-10-11T01:30:34.985Z,101461.75
2022-10-11T01:33:29.992Z,101490.03
2022-10-11T01:36:37.623Z,101484.72
2022-10-11T01:39:20.675Z,101478.50
2022-10-11T01:41:57.869Z,101489.13
2022-10-11T01:44:30.645Z,101504.16
2022-10-11T01:47:01.989Z,101505.09
2022-10-11T01:49:33.742Z,101482.19
2022-10-11T01:52:07.526Z,101496.38
2022-10-11T01:55:09.150Z,101509.56
2022-10-11T01:58:03.972Z,101498.06
2022-10-11T02:00:52.162Z,101503.31
2022-10-11T02:07:34.166Z,101514.63
2022-10-11T02:10:17.570Z,101508.44
2022-10-11T02:12:58.050Z,101512.84
2022-10-11T02:15:34.073Z,101513.78
2022-10-11T02:18:09.222Z,101519.09
2022-10-11T02:20:42.714Z,101508.53
2022-10-11T02:23:18.951Z,101508.53
2022-10-11T02:25:51.808Z,101510.31
2022-10-11T02:28:28.775Z,101520.84
2022-10-11T02:31:02.524Z,101526.06
2022-10-11T02:33:40.298Z,101531.31
2022-10-11T02:36:19.474Z,101533.06
2022-10-11T02:38:55.838Z,101530.41
2022-10-11T02:41:32.245Z,101533.06
2022-10-11T02:44:09.189Z,101526.03
2022-10-11T02:46:42.963Z,101526.06
2022-10-11T02:49:16.318Z,101517.34
2022-10-11T02:51:47.637Z,101529.78
2022-10-11T02:54:18.901Z,101533.41
2022-10-11T02:56:50.245Z,101536.16
2022-10-11T02:59:21.532Z,101538.88
2022-10-11T03:01:52.896Z,101531.88
2022-10-11T03:04:24.249Z,101535.47
2022-10-11T03:06:55.620Z,101547.84
2022-10-11T03:09:26.914Z,101538.16
2022-10-11T03:11:58.336Z,101551.41
2022-10-11T03:14:29.673Z,101546.97
2022-10-11T03:17:23.820Z,101553.06
2022-10-11T03:19:52.297Z,101560.06
2022-10-11T03:22:23.621Z,101557.34
2022-10-11T03:24:57.461Z,101567.88
2022-10-11T03:27:32.589Z,101573.09
2022-10-11T03:30:04.757Z,101570.41
2022-10-11T03:32:36.117Z,101572.13
2022-10-11T03:35:07.985Z,101574.75
2022-10-11T03:37:39.257Z,101587.91
2022-10-11T03:40:13.488Z,101568.44
2022-10-11T03:42:44.947Z,101587.81
2022-10-11T03:45:16.256Z,101579.00
2022-10-11T03:47:47.582Z,101578.06
2022-10-11T03:50:18.849Z,101577.13
2022-10-11T03:52:50.582Z,101588.50
2022-10-11T03:55:21.882Z,101590.22
2022-10-11T03:57:53.371Z,101587.44
2022-10-11T04:00:24.817Z,101595.38
2022-10-11T04:02:56.287Z,101599.69
2022-10-11T04:05:27.549Z,101608.44
2022-10-11T04:07:58.839Z,101599.50
2022-10-11T04:10:31.394Z,101587.94
2022-10-11T04:13:02.694Z,101614.41
2022-10-11T04:15:33.983Z,101620.56
2022-10-11T04:18:06.381Z,101628.44
2022-10-11T04:20:37.697Z,101639.81
2022-10-11T04:23:09.045Z,101634.44
2022-10-11T04:25:40.537Z,101644.06
2022-10-11T04:28:11.963Z,101640.47
2022-10-11T04:30:43.398Z,101631.56
2022-10-11T04:33:14.723Z,101644.81
2022-10-11T04:35:45.996Z,101639.56
2022-10-11T04:38:17.377Z,101639.56
2022-10-11T04:40:48.833Z,101632.41
2022-10-11T04:43:20.323Z,101651.09
2022-10-11T04:45:55.347Z,101651.25
2022-10-11T04:48:26.944Z,101655.84
2022-10-11T04:50:58.235Z,101621.44
2022-10-11T04:53:29.876Z,101637.59
2022-10-11T04:56:05.511Z,101648.34
2022-10-11T04:58:40.739Z,101651.03
2022-10-11T05:01:12.038Z,101672.31
2022-10-11T05:03:43.292Z,101669.72
2022-10-11T05:06:14.767Z,101662.75
2022-10-11T05:08:46.089Z,101681.41
2022-10-11T05:11:17.736Z,101667.34
2022-10-11T05:13:49.157Z,101678.91
2022-10-11T05:16:20.413Z,101671.06
2022-10-11T05:18:52.006Z,101677.28
2022-10-11T05:21:26.645Z,101677.34
2022-10-11T05:23:58.222Z,101677.41
2022-10-11T05:26:29.538Z,101666.75
2022-10-11T05:29:01.007Z,101688.03
2022-10-11T05:31:33.055Z,101699.53
2022-10-11T05:34:04.580Z,101703.97
2022-10-11T05:36:35.935Z,101713.63
2022-10-11T05:39:07.295Z,101726.94
2022-10-11T05:41:38.625Z,101727.84
2022-10-11T05:44:10.062Z,101725.22
2022-10-11T05:46:41.381Z,101732.34
2022-10-11T05:49:12.765Z,101727.97
2022-10-11T05:51:44.174Z,101720.94
2022-10-11T05:54:15.513Z,101717.44
2022-10-11T05:56:46.768Z,101706.00
2022-10-11T05:59:18.049Z,101704.28
2022-10-11T06:01:49.414Z,101701.63
2022-10-11T06:04:20.768Z,101725.47
2022-10-11T06:06:52.262Z,101728.97
2022-10-11T06:09:23.564Z,101728.09
2022-10-11T06:11:54.861Z,101739.59
2022-10-11T06:14:26.522Z,101752.84
2022-10-11T06:16:57.863Z,101744.94
2022-10-11T06:19:29.195Z,101715.69
2022-10-11T06:22:00.553Z,101743.13
2022-10-11T06:24:31.827Z,101760.81
2022-10-11T06:27:03.292Z,101761.69
2022-10-11T06:29:35.176Z,101755.41
2022-10-11T06:32:06.762Z,101751.84
2022-10-11T06:34:38.336Z,101757.13
2022-10-11T06:37:09.708Z,101754.41
2022-10-11T06:39:41.373Z,101771.16
2022-10-11T06:42:13.001Z,101768.41
2022-10-11T06:44:44.260Z,101782.53
2022-10-11T06:47:15.734Z,101784.31
2022-10-11T06:49:46.984Z,101783.41
2022-10-11T06:52:18.330Z,101794.94
2022-10-11T06:54:49.581Z,101802.97
2022-10-11T06:57:20.947Z,101788.94
2022-10-11T06:59:52.269Z,101795.25
2022-10-11T07:02:23.593Z,101797.97
2022-10-11T07:04:54.897Z,101808.63
2022-10-11T07:07:26.228Z,101795.41
2022-10-11T07:09:57.602Z,101806.97
2022-10-11T07:12:29.010Z,101803.47
2022-10-11T07:15:00.261Z,101810.56
2022-10-11T07:17:31.523Z,101813.22
2022-10-11T07:20:03.331Z,101818.56
2022-10-11T07:22:34.635Z,101822.13
2022-10-11T07:25:06.474Z,101822.16
2022-10-11T07:27:37.976Z,101819.53
2022-10-11T07:30:09.793Z,101820.47
2022-10-11T07:32:41.356Z,101830.22
2022-10-11T07:35:12.699Z,101825.84
2022-10-11T07:37:44.070Z,101827.66
2022-10-11T07:40:15.480Z,101828.53
2022-10-11T07:42:46.768Z,101829.50
2022-10-11T07:45:18.218Z,101825.06
2022-10-11T07:47:49.479Z,101837.44
2022-10-11T07:50:20.793Z,101829.50
2022-10-11T07:52:52.126Z,101833.03
2022-10-11T07:55:23.417Z,101837.47
2022-10-11T07:57:55.218Z,101829.50
2022-10-11T08:00:26.748Z,101834.78
2022-10-11T08:02:57.990Z,101841.88
2022-10-11T08:05:29.830Z,101850.72
2022-10-11T08:08:01.205Z,101848.94
2022-10-11T08:10:38.192Z,101854.22
2022-10-11T08:13:09.502Z,101858.66
2022-10-11T08:15:40.977Z,101855.97
2022-10-11T08:18:12.375Z,101860.41
2022-10-11T08:20:43.915Z,101858.56
2022-10-11T08:23:16.929Z,101851.47
2022-10-11T08:25:48.503Z,101852.31
2022-10-11T08:28:20.819Z,101857.59
2022-10-11T08:30:54.166Z,101846.09
2022-10-11T08:33:26.419Z,101846.94
2022-10-11T08:35:58.321Z,101869.00
2022-10-11T08:38:29.682Z,101866.28
2022-10-11T08:41:01.688Z,101865.31
2022-10-11T08:43:56.383Z,101851.94
2022-10-11T08:46:31.889Z,101859.78
2022-10-11T08:49:05.044Z,101865.91
2022-10-11T08:52:02.293Z,101863.13
2022-10-11T08:55:05.505Z,101868.34
2022-10-11T08:57:38.924Z,101874.47
2022-10-11T09:00:16.946Z,101867.28
2022-10-11T09:03:08.064Z,101889.44
2022-10-11T09:05:58.740Z,101883.13
2022-10-11T09:08:57.409Z,101883.94
2022-10-11T09:11:38.030Z,101886.59
2022-10-11T09:14:37.022Z,101887.50
2022-10-11T09:17:50.220Z,101886.59
2022-10-11T09:20:35.379Z,101888.38
2022-10-11T09:23:32.645Z,101897.25
2022-10-11T09:26:14.936Z,101875.94
2022-10-11T09:29:20.180Z,101897.00
2022-10-11T09:31:54.791Z,101899.50
2022-10-11T09:34:32.307Z,101890.44
2022-10-11T09:37:18.169Z,101882.31
2022-10-11T09:40:06.505Z,101880.44
2022-10-11T09:42:37.881Z,101895.44
2022-10-11T09:45:19.139Z,101890.81
2022-10-11T09:47:53.597Z,101880.13
2022-10-11T09:50:26.316Z,101890.59
2022-10-11T09:53:00.602Z,101899.28
2022-10-11T09:55:37.010Z,101893.75
2022-10-11T09:58:33.000Z,101891.81
2022-10-11T10:01:10.001Z,101896.97
2022-10-11T10:03:43.873Z,101887.88
2022-10-11T10:06:21.876Z,101898.34
2022-10-11T10:08:53.240Z,101900.81
2022-10-11T10:11:24.573Z,101899.72
2022-10-11T10:13:56.291Z,101898.63
2022-10-11T10:16:30.678Z,101902.84
2022-10-11T10:19:04.826Z,101904.56
2022-10-11T10:21:38.636Z,101900.13
2022-10-11T10:24:20.494Z,101893.03
2022-10-11T10:27:10.275Z,101901.69
2022-10-11T10:29:41.705Z,101911.50
2022-10-11T10:32:20.986Z,101904.31
2022-10-11T10:35:02.834Z,101913.97
2022-10-11T10:37:52.142Z,101911.09
2022-10-11T10:40:35.858Z,101911.72
2022-10-11T10:43:15.497Z,101898.06
2022-10-11T10:46:28.693Z,101904.69
2022-10-11T10:52:28.229Z,101909.06
2022-10-11T10:55:14.124Z,101901.84
2022-10-11T10:58:25.113Z,101907.91
2022-10-11T11:01:05.826Z,101906.84
2022-10-11T11:04:02.656Z,101905.09
2022-10-11T11:06:54.026Z,101917.53
2022-10-11T11:09:50.060Z,101912.75
2022-10-11T11:12:45.219Z,101924.06
2022-10-11T11:15:33.192Z,101920.28
2022-10-11T11:18:36.185Z,101909.56
2022-10-11T11:21:40.563Z,101912.38
2022-10-11T11:24:39.606Z,101912.94
2022-10-11T11:27:38.414Z,101909.00
2022-10-11T11:30:22.956Z,101912.50
2022-10-11T11:33:07.050Z,101909.78
2022-10-11T11:35:50.261Z,101902.28
2022-10-11T11:38:33.502Z,101917.84
2022-10-11T11:41:12.498Z,101908.66
2022-10-11T11:44:06.730Z,101913.59
2022-10-11T11:46:47.939Z,101911.22
2022-10-11T11:49:27.988Z,101903.72
2022-10-11T11:52:00.210Z,101903.63
2022-10-11T11:55:25.224Z,101920.94
2022-10-11T11:58:20.193Z,101924.22
2022-10-11T12:01:07.123Z,101916.84
2022-10-11T12:03:43.358Z,101913.44
2022-10-11T12:06:14.692Z,101920.41
2022-10-11T12:09:01.921Z,101914.78
2022-10-11T12:11:52.863Z,101902.53
2022-10-11T12:14:32.965Z,101914.16
2022-10-11T12:17:08.699Z,101901.19
2022-10-11T12:19:43.757Z,101900.69
2022-10-11T12:22:27.070Z,101901.97
2022-10-11T12:25:13.806Z,101908.69
2022-10-11T12:27:50.860Z,101901.28
2022-10-11T12:30:44.589Z,101909.66
2022-10-11T12:33:22.717Z,101901.03
2022-10-11T12:35:54.095Z,101908.38
2022-10-11T12:38:40.176Z,101909.38
2022-10-11T12:41:13.275Z,101912.91
2022-10-11T12:43:47.294Z,101905.69
2022-10-11T12:46:33.437Z,101911.91
2022-10-11T12:49:19.270Z,101910.91
2022-10-11T12:52:02.439Z,101906.44
2022-10-11T12:55:05.126Z,101909.94
2022-10-11T12:58:46.504Z,101911.69
2022-10-11T13:01:23.630Z,101905.34
2022-10-11T13:04:03.154Z,101916.72
2022-10-11T13:06:49.442Z,101914.59
2022-10-11T13:09:28.030Z,101915.25
2022-10-11T13:12:07.190Z,101911.47
2022-10-11T13:14:44.797Z,101903.16
2022-10-11T13:17:35.784Z,101900.25
2022-10-11T13:20:15.623Z,101895.81
2022-10-11T13:22:49.735Z,101900.31
2022-10-11T13:25:30.222Z,101896.72
2022-10-11T13:28:01.949Z,101901.16
2022-10-11T13:30:35.735Z,101892.19
2022-10-11T13:33:18.722Z,101905.38
2022-10-11T13:35:51.143Z,101899.72
2022-10-11T13:38:27.056Z,101897.63
2022-10-11T13:41:00.869Z,101895.66
2022-10-11T13:43:32.607Z,101896.50
2022-10-11T13:46:05.049Z,101892.97
2022-10-11T13:48:41.104Z,101900.03
2022-10-11T13:51:26.378Z,101896.41
2022-10-11T13:54:13.079Z,101879.72
2022-10-11T13:56:51.259Z,101894.72
2022-10-11T13:59:25.658Z,101891.03
2022-10-11T14:02:00.078Z,101893.69
2022-10-11T14:04:40.581Z,101885.69
2022-10-11T14:07:26.507Z,101894.22
2022-10-11T14:09:57.897Z,101878.03
2022-10-11T14:12:31.799Z,101888.84
2022-10-11T14:15:05.759Z,101888.00
2022-10-11T14:17:43.329Z,101873.41
2022-10-11T14:20:16.734Z,101879.28
2022-10-11T14:22:54.376Z,101863.31
2022-10-11T14:25:25.770Z,101877.50
2022-10-11T14:27:57.611Z,101874.91
2022-10-11T14:30:31.358Z,101870.25
2022-10-11T14:33:03.542Z,101876.47
2022-10-11T14:35:34.911Z,101881.59
2022-10-11T14:38:06.577Z,101878.88
2022-10-11T14:40:37.914Z,101882.03
2022-10-11T14:43:09.268Z,101887.91
2022-10-11T14:45:40.536Z,101879.19
2022-10-11T14:48:11.867Z,101887.44
2022-10-11T14:50:50.890Z,101882.47
2022-10-11T14:53:22.363Z,101880.06
2022-10-11T14:55:55.311Z,101874.94
2022-10-11T14:58:26.837Z,101891.13
2022-10-11T15:00:58.107Z,101877.72
2022-10-11T15:03:29.402Z,101888.41
2022-10-11T15:06:00.721Z,101880.34
2022-10-11T15:08:32.154Z,101881.16
2022-10-11T15:11:03.633Z,101892.69
2022-10-11T15:13:35.043Z,101884.75
2022-10-11T15:16:07.325Z,101887.69
2022-10-11T15:18:39.489Z,101880.84
2022-10-11T15:21:13.672Z,101877.59
2022-10-11T15:23:44.953Z,101886.75
2022-10-11T15:26:19.800Z,101880.72
2022-10-11T15:28:52.249Z,101886.19
2022-10-11T15:31:24.135Z,101884.47
2022-10-11T15:33:59.342Z,101886.31
2022-10-11T15:36:30.981Z,101877.53
2022-10-11T15:39:02.376Z,101890.75
2022-10-11T15:41:33.626Z,101883.63
2022-10-11T15:44:05.152Z,101889.91
2022-10-11T15:46:36.418Z,101891.72
2022-10-11T15:49:12.928Z,101890.03
2022-10-11T15:51:44.166Z,101896.31
2022-10-11T15:54:15.427Z,101896.41
2022-10-11T15:56:46.822Z,101901.84
2022-10-11T15:59:18.077Z,101907.25
2022-10-11T16:01:49.526Z,101906.44
2022-10-11T16:04:21.151Z,101905.66
2022-10-11T16:06:52.689Z,101906.66
2022-10-11T16:09:24.564Z,101910.44
2022-10-11T16:11:55.842Z,101907.06
2022-10-11T16:14:27.092Z,101917.03
2022-10-11T16:17:01.030Z,101922.59
2022-10-11T16:19:32.374Z,101905.09
2022-10-11T16:22:03.704Z,101913.22
2022-10-11T16:24:35.026Z,101913.31
2022-10-11T16:27:06.301Z,101916.97
2022-10-11T16:29:37.594Z,101906.34
2022-10-11T16:32:08.933Z,101912.63
2022-10-11T16:34:40.304Z,101909.06
2022-10-11T16:37:12.988Z,101917.09
2022-10-11T16:39:44.304Z,101921.66
2022-10-11T16:42:15.594Z,101921.72
2022-10-11T16:44:46.878Z,101923.53
2022-10-11T16:47:18.748Z,101918.22
2022-10-11T16:49:50.262Z,101924.50
2022-10-11T16:52:21.605Z,101919.16
2022-10-11T16:54:52.979Z,101914.69
2022-10-11T16:57:24.450Z,101920.94
2022-10-11T16:59:55.893Z,101914.75
2022-10-11T17:02:31.504Z,101916.50
2022-10-11T17:05:04.042Z,101911.22
2022-10-11T17:07:35.354Z,101905.03
2022-10-11T17:10:07.247Z,101909.47
2022-10-11T17:12:38.699Z,101914.81
2022-10-11T17:15:10.779Z,101903.25
2022-10-11T17:17:42.071Z,101912.19
2022-10-11T17:20:13.338Z,101901.53
2022-10-11T17:22:44.586Z,101906.03
2022-10-11T17:25:15.921Z,101897.22
2022-10-11T17:27:47.370Z,101901.63
2022-10-11T17:30:18.785Z,101905.25
2022-10-11T17:32:53.245Z,101892.88
2022-10-11T17:35:24.534Z,101908.00
2022-10-11T17:37:55.805Z,101906.31
2022-10-11T17:40:28.013Z,101900.22
2022-10-11T17:42:59.297Z,101911.00
2022-10-11T17:45:30.562Z,101907.59
2022-10-11T17:48:04.001Z,101913.97
2022-10-11T17:50:40.226Z,101905.19
2022-10-11T17:53:11.482Z,101912.41
2022-10-11T17:55:43.994Z,101903.53
2022-10-11T17:58:15.449Z,101906.22
2022-10-11T18:00:46.850Z,101912.44
2022-10-11T18:03:18.428Z,101905.31
2022-10-11T18:05:49.734Z,101906.19
2022-10-11T18:08:21.212Z,101890.25
2022-10-11T18:10:52.579Z,101902.63
2022-10-11T18:13:23.899Z,101902.63
2022-10-11T18:15:55.335Z,101889.34
2022-10-11T18:18:26.715Z,101907.97
2022-10-11T18:20:58.050Z,101907.97
2022-10-11T18:23:29.331Z,101910.59
2022-10-11T18:26:08.887Z,101903.50
2022-10-11T18:28:41.597Z,101908.81
2022-10-11T18:31:17.760Z,101901.72
2022-10-11T18:33:50.970Z,101902.63
2022-10-11T18:36:25.095Z,101898.19
2022-10-11T18:38:59.242Z,101902.63
2022-10-11T18:41:32.214Z,101901.75
2022-10-11T18:44:06.601Z,101900.88
2022-10-11T18:46:37.925Z,101903.56
2022-10-11T18:49:09.503Z,101907.09
2022-10-11T18:51:41.840Z,101892.03
2022-10-11T18:54:16.787Z,101900.94
2022-10-11T18:56:51.401Z,101908.06
2022-10-11T18:59:22.690Z,101912.53
2022-10-11T19:01:53.961Z,101909.88
2022-10-11T19:04:25.288Z,101906.34
2022-10-11T19:06:56.605Z,101905.50
2022-10-11T19:09:28.763Z,101887.78
2022-10-11T19:12:00.076Z,101901.09
2022-10-11T19:14:31.424Z,101899.41
2022-10-11T19:17:02.763Z,101900.41
2022-10-11T19:19:34.538Z,101902.31
2022-10-11T19:22:06.053Z,101886.47
2022-10-11T19:24:37.371Z,101903.44
2022-10-11T19:27:08.666Z,101897.28
2022-10-11T19:29:39.925Z,101900.88
2022-10-11T19:32:11.171Z,101904.50
2022-10-11T19:34:42.603Z,101904.50
2022-10-11T19:37:14.301Z,101896.53
2022-10-11T19:39:45.595Z,101901.00
2022-10-11T19:42:16.891Z,101905.44
2022-10-11T19:44:48.273Z,101901.94
2022-10-11T19:47:19.701Z,101900.13
2022-10-11T19:49:50.969Z,101902.81
2022-10-11T19:52:22.422Z,101901.06
2022-10-11T19:54:53.733Z,101899.31
2022-10-11T19:57:24.984Z,101894.06
2022-10-11T19:59:56.270Z,101884.34
2022-10-11T20:02:27.529Z,101895.84
2022-10-11T20:04:58.815Z,101902.94
2022-10-11T20:07:30.181Z,101892.34
2022-10-11T20:10:01.882Z,101895.88
2022-10-11T20:12:33.805Z,101899.41
2022-10-11T20:15:05.556Z,101895.88
2022-10-11T20:17:49.098Z,101897.63
2022-10-11T20:20:20.379Z,101895.84
2022-10-11T20:22:53.357Z,101900.25
2022-10-11T20:25:24.704Z,101886.09
2022-10-11T20:27:55.947Z,101894.06
2022-10-11T20:30:27.217Z,101904.66
2022-10-11T20:32:58.465Z,101898.44
2022-10-11T20:35:29.713Z,101895.78
2022-10-11T20:38:00.957Z,101899.34
2022-10-11T20:40:32.225Z,101901.09
2022-10-11T20:43:03.466Z,101902.88
2022-10-11T20:45:34.721Z,101905.53
2022-10-11T20:48:05.974Z,101904.66
2022-10-11T20:50:37.224Z,101902.00
2022-10-11T20:53:10.815Z,101901.94
2022-10-11T20:55:46.099Z,101903.69
2022-10-11T20:58:18.532Z,101904.56
2022-10-11T21:00:49.864Z,101908.13
2022-10-11T21:03:21.135Z,101906.34
2022-10-11T21:05:59.935Z,101905.44
2022-10-11T21:08:31.408Z,101906.34
2022-10-11T21:11:03.405Z,101908.97
2022-10-11T21:13:35.372Z,101899.25
2022-10-11T21:16:11.200Z,101899.25
2022-10-11T21:18:42.730Z,101893.03
2022-10-11T21:21:14.701Z,101905.44
2022-10-11T21:23:46.194Z,101909.84
2022-10-11T21:26:20.643Z,101905.44
2022-10-11T21:28:52.056Z,101908.97
2022-10-11T21:31:23.630Z,101904.56
2022-10-11T21:33:54.898Z,101898.38
2022-10-11T21:36:26.227Z,101907.19
2022-10-11T21:38:57.587Z,101913.41
2022-10-11T21:41:29.962Z,101907.19
2022-10-11T21:44:01.575Z,101903.66
2022-10-11T21:49:25.128Z,101905.44
2022-10-11T21:51:56.422Z,101907.19
2022-10-11T21:54:27.755Z,101915.13
2022-10-11T21:56:59.032Z,101905.41
2022-10-11T21:59:30.276Z,101912.47
2022-10-11T22:02:02.196Z,101911.59
2022-10-11T22:04:33.741Z,101909.81
2022-10-11T22:07:05.097Z,101910.72
2022-10-11T22:09:36.410Z,101903.63
2022-10-11T22:12:07.833Z,101908.94
2022-10-11T22:14:39.082Z,101899.22
2022-10-11T22:17:10.379Z,101906.28
2022-10-11T22:19:41.654Z,101893.88
2022-10-11T22:22:12.926Z,101908.03
2022-10-11T22:24:44.190Z,101903.63
2022-10-11T22:27:15.512Z,101891.22
2022-10-11T22:29:46.782Z,101906.28
2022-10-11T22:32:18.090Z,101907.19
2022-10-11T22:34:49.449Z,101895.69
2022-10-11T22:37:20.694Z,101902.78
2022-10-11T22:39:51.935Z,101912.53
2022-10-11T22:42:27.513Z,101903.72
2022-10-11T22:44:59.104Z,101908.19
2022-10-11T22:47:30.472Z,101905.53
2022-10-11T22:50:01.965Z,101894.03
2022-10-11T22:52:33.280Z,101902.03
2022-10-11T22:55:04.939Z,101910.84
2022-10-11T22:57:36.476Z,101902.00
2022-10-11T23:00:08.680Z,101902.03
2022-10-11T23:02:39.932Z,101904.69
2022-10-11T23:05:11.240Z,101907.34
2022-10-11T23:07:42.604Z,101911.78
2022-10-11T23:10:14.542Z,101909.13
2022-10-11T23:12:45.928Z,101916.22
2022-10-11T23:15:17.447Z,101917.97
2022-10-11T23:17:48.713Z,101917.09
2022-10-11T23:20:19.968Z,101910.03
2022-10-11T23:22:51.217Z,101906.47
2022-10-11T23:25:22.482Z,101908.25
2022-10-11T23:27:53.810Z,101899.41
2022-10-11T23:30:25.065Z,101910.91
2022-10-11T23:32:56.705Z,101910.91
2022-10-11T23:35:28.013Z,101913.56
2022-10-11T23:37:59.261Z,101919.75
2022-10-11T23:40:30.634Z,101922.41
2022-10-11T23:43:02.701Z,101920.66
2022-10-11T23:45:33.959Z,101926.84
2022-10-11T23:48:05.352Z,101909.16
2022-10-11T23:50:36.744Z,101923.31
2022-10-11T23:53:08.185Z,101919.78
2022-10-11T23:55:40.427Z,101916.22
2022-10-11T23:58:11.716Z,101924.19
